sensor_id;sensor_type;location;lat;lon;timestamp;temperature;humidity
8611;DHT22;4343;53.648;10.098;2023-08-31T00:00:09;14.90;99.90
8611;DHT22;4343;53.648;10.098;2023-08-31T00:02:35;14.90;99.90
8611;DHT22;4343;53.648;10.098;2023-08-31T00:05:01;15.00;99.90
8611;DHT22;4343;53.648;10.098;2023-08-31T00:07:27;14.90;99.90
8611;DHT22;4343;53.648;10.098;2023-08-31T00:09:52;14.90;99.90
8611;DHT22;4343;53.648;10.098;2023-08-31T00:12:19;14.90;99.90
8611;DHT22;4343;53.648;10.098;2023-08-31T00:14:44;14.90;99.90
8611;DHT22;4343;53.648;10.098;2023-08-31T00:17:10;14.90;99.90
8611;DHT22;4343;53.648;10.098;2023-08-31T00:19:35;14.90;99.90
8611;DHT22;4343;53.648;10.098;2023-08-31T00:22:00;15.00;99.90
8611;DHT22;4343;53.648;10.098;2023-08-31T00:24:26;14.90;99.90
8611;DHT22;4343;53.648;10.098;2023-08-31T00:26:57;14.90;99.90
8611;DHT22;4343;53.648;10.098;2023-08-31T00:29:22;14.90;99.90
8611;DHT22;4343;53.648;10.098;2023-08-31T00:31:48;14.90;99.90
8611;DHT22;4343;53.648;10.098;2023-08-31T00:34:16;14.90;99.90
8611;DHT22;4343;53.648;10.098;2023-08-31T00:36:43;14.90;99.90
8611;DHT22;4343;53.648;10.098;2023-08-31T00:39:08;14.90;99.90
8611;DHT22;4343;53.648;10.098;2023-08-31T00:41:36;14.90;99.90
8611;DHT22;4343;53.648;10.098;2023-08-31T00:44:02;14.80;99.90
8611;DHT22;4343;53.648;10.098;2023-08-31T00:46:30;14.80;99.90
8611;DHT22;4343;53.648;10.098;2023-08-31T00:48:56;14.80;99.90
8611;DHT22;4343;53.648;10.098;2023-08-31T00:51:23;14.80;99.90
8611;DHT22;4343;53.648;10.098;2023-08-31T00:53:50;14.80;99.90
8611;DHT22;4343;53.648;10.098;2023-08-31T00:56:18;14.80;99.90
8611;DHT22;4343;53.648;10.098;2023-08-31T00:58:44;14.80;99.90
8611;DHT22;4343;53.648;10.098;2023-08-31T01:01:27;14.70;99.90
8611;DHT22;4343;53.648;10.098;2023-08-31T01:07:01;14.70;99.90
8611;DHT22;4343;53.648;10.098;2023-08-31T01:09:57;14.70;99.90
8611;DHT22;4343;53.648;10.098;2023-08-31T01:12:36;14.70;99.90
8611;DHT22;4343;53.648;10.098;2023-08-31T01:15:09;14.70;99.90
8611;DHT22;4343;53.648;10.098;2023-08-31T01:18:02;14.60;99.90
8611;DHT22;4343;53.648;10.098;2023-08-31T01:23:19;14.60;99.90
8611;DHT22;4343;53.648;10.098;2023-08-31T01:25:46;14.60;99.90
8611;DHT22;4343;53.648;10.098;2023-08-31T01:28:13;14.60;99.90
8611;DHT22;4343;53.648;10.098;2023-08-31T01:30:39;14.50;99.90
8611;DHT22;4343;53.648;10.098;2023-08-31T01:33:04;14.50;99.90
8611;DHT22;4343;53.648;10.098;2023-08-31T01:35:43;14.50;99.90
8611;DHT22;4343;53.648;10.098;2023-08-31T01:38:11;14.50;99.90
8611;DHT22;4343;53.648;10.098;2023-08-31T01:40:54;14.40;99.90
8611;DHT22;4343;53.648;10.098;2023-08-31T01:43:22;14.40;99.90
8611;DHT22;4343;53.648;10.098;2023-08-31T01:45:48;14.30;99.90
8611;DHT22;4343;53.648;10.098;2023-08-31T01:48:15;14.30;99.90
8611;DHT22;4343;53.648;10.098;2023-08-31T01:50:41;14.30;99.90
8611;DHT22;4343;53.648;10.098;2023-08-31T01:53:06;14.30;99.90
8611;DHT22;4343;53.648;10.098;2023-08-31T01:55:32;14.20;99.90
8611;DHT22;4343;53.648;10.098;2023-08-31T01:57:58;14.20;99.90
8611;DHT22;4343;53.648;10.098;2023-08-31T02:00:25;14.20;99.90
8611;DHT22;4343;53.648;10.098;2023-08-31T02:02:51;14.20;99.90
8611;DHT22;4343;53.648;10.098;2023-08-31T02:05:16;14.10;99.90
8611;DHT22;4343;53.648;10.098;2023-08-31T02:07:42;14.10;99.90
8611;DHT22;4343;53.648;10.098;2023-08-31T02:10:08;14.10;99.90
8611;DHT22;4343;53.648;10.098;2023-08-31T02:12:33;14.00;99.90
8611;DHT22;4343;53.648;10.098;2023-08-31T02:15:01;14.00;99.90
8611;DHT22;4343;53.648;10.098;2023-08-31T02:17:27;14.00;99.90
8611;DHT22;4343;53.648;10.098;2023-08-31T02:19:52;14.00;99.90
8611;DHT22;4343;53.648;10.098;2023-08-31T02:22:18;14.00;99.90
8611;DHT22;4343;53.648;10.098;2023-08-31T02:24:43;13.90;99.90
8611;DHT22;4343;53.648;10.098;2023-08-31T02:27:09;13.90;99.90
8611;DHT22;4343;53.648;10.098;2023-08-31T02:29:35;13.90;99.90
8611;DHT22;4343;53.648;10.098;2023-08-31T02:32:04;13.90;99.90
8611;DHT22;4343;53.648;10.098;2023-08-31T02:34:30;13.80;99.90
8611;DHT22;4343;53.648;10.098;2023-08-31T02:36:55;13.80;99.90
8611;DHT22;4343;53.648;10.098;2023-08-31T02:39:21;13.70;99.90
8611;DHT22;4343;53.648;10.098;2023-08-31T02:41:46;13.70;99.90
8611;DHT22;4343;53.648;10.098;2023-08-31T02:44:12;13.70;99.90
8611;DHT22;4343;53.648;10.098;2023-08-31T02:46:37;13.70;99.90
8611;DHT22;4343;53.648;10.098;2023-08-31T02:49:03;13.70;99.90
8611;DHT22;4343;53.648;10.098;2023-08-31T02:51:28;13.60;99.90
8611;DHT22;4343;53.648;10.098;2023-08-31T02:53:54;13.60;99.90
8611;DHT22;4343;53.648;10.098;2023-08-31T02:56:19;13.50;99.90
8611;DHT22;4343;53.648;10.098;2023-08-31T02:58:45;13.50;99.90
8611;DHT22;4343;53.648;10.098;2023-08-31T03:01:13;13.50;99.90
8611;DHT22;4343;53.648;10.098;2023-08-31T03:03:40;13.50;99.90
8611;DHT22;4343;53.648;10.098;2023-08-31T03:06:09;13.50;99.90
8611;DHT22;4343;53.648;10.098;2023-08-31T03:08:35;13.50;99.90
8611;DHT22;4343;53.648;10.098;2023-08-31T03:11:02;13.40;99.90
8611;DHT22;4343;53.648;10.098;2023-08-31T03:13:28;13.40;99.90
8611;DHT22;4343;53.648;10.098;2023-08-31T03:15:54;13.40;99.90
8611;DHT22;4343;53.648;10.098;2023-08-31T03:18:21;13.40;99.90
8611;DHT22;4343;53.648;10.098;2023-08-31T03:20:47;13.30;99.90
8611;DHT22;4343;53.648;10.098;2023-08-31T03:23:12;13.30;99.90
8611;DHT22;4343;53.648;10.098;2023-08-31T03:25:38;13.30;99.90
8611;DHT22;4343;53.648;10.098;2023-08-31T03:28:04;13.20;99.90
8611;DHT22;4343;53.648;10.098;2023-08-31T03:30:29;13.20;99.90
8611;DHT22;4343;53.648;10.098;2023-08-31T03:32:55;13.20;99.90
8611;DHT22;4343;53.648;10.098;2023-08-31T03:35:20;13.20;99.90
8611;DHT22;4343;53.648;10.098;2023-08-31T03:37:52;13.20;99.90
8611;DHT22;4343;53.648;10.098;2023-08-31T03:40:17;13.20;99.90
8611;DHT22;4343;53.648;10.098;2023-08-31T03:42:43;13.20;99.90
8611;DHT22;4343;53.648;10.098;2023-08-31T03:45:08;13.10;99.90
8611;DHT22;4343;53.648;10.098;2023-08-31T03:47:34;13.10;99.90
8611;DHT22;4343;53.648;10.098;2023-08-31T03:49:59;13.10;99.90
8611;DHT22;4343;53.648;10.098;2023-08-31T03:52:25;13.10;99.90
8611;DHT22;4343;53.648;10.098;2023-08-31T03:54:51;13.00;99.90
8611;DHT22;4343;53.648;10.098;2023-08-31T03:57:18;13.00;99.90
8611;DHT22;4343;53.648;10.098;2023-08-31T03:59:43;13.00;99.90
8611;DHT22;4343;53.648;10.098;2023-08-31T04:02:09;13.00;99.90
8611;DHT22;4343;53.648;10.098;2023-08-31T04:04:34;12.90;99.90
8611;DHT22;4343;53.648;10.098;2023-08-31T04:07:00;13.00;99.90
8611;DHT22;4343;53.648;10.098;2023-08-31T04:09:26;12.90;99.90
8611;DHT22;4343;53.648;10.098;2023-08-31T04:11:51;12.90;99.90
8611;DHT22;4343;53.648;10.098;2023-08-31T04:14:17;12.90;99.90
8611;DHT22;4343;53.648;10.098;2023-08-31T04:16:44;12.80;99.90
8611;DHT22;4343;53.648;10.098;2023-08-31T04:19:09;12.80;99.90
8611;DHT22;4343;53.648;10.098;2023-08-31T04:21:35;12.80;99.90
8611;DHT22;4343;53.648;10.098;2023-08-31T04:24:01;12.80;99.90
8611;DHT22;4343;53.648;10.098;2023-08-31T04:26:27;12.70;99.90
8611;DHT22;4343;53.648;10.098;2023-08-31T04:28:53;12.70;99.90
8611;DHT22;4343;53.648;10.098;2023-08-31T04:31:18;12.70;99.90
8611;DHT22;4343;53.648;10.098;2023-08-31T04:33:45;12.60;99.90
8611;DHT22;4343;53.648;10.098;2023-08-31T04:36:10;12.60;99.90
8611;DHT22;4343;53.648;10.098;2023-08-31T04:38:37;12.50;99.90
8611;DHT22;4343;53.648;10.098;2023-08-31T04:41:03;12.60;99.90
8611;DHT22;4343;53.648;10.098;2023-08-31T04:43:29;12.50;99.90
8611;DHT22;4343;53.648;10.098;2023-08-31T04:45:54;12.50;99.90
8611;DHT22;4343;53.648;10.098;2023-08-31T04:48:20;12.50;99.90
8611;DHT22;4343;53.648;10.098;2023-08-31T04:50:46;12.40;99.90
8611;DHT22;4343;53.648;10.098;2023-08-31T04:53:11;12.50;99.90
8611;DHT22;4343;53.648;10.098;2023-08-31T04:55:37;12.50;99.90
8611;DHT22;4343;53.648;10.098;2023-08-31T04:58:03;12.40;99.90
8611;DHT22;4343;53.648;10.098;2023-08-31T05:00:29;12.40;99.90
8611;DHT22;4343;53.648;10.098;2023-08-31T05:02:55;12.40;99.90
8611;DHT22;4343;53.648;10.098;2023-08-31T05:05:21;12.40;99.90
8611;DHT22;4343;53.648;10.098;2023-08-31T05:07:46;12.40;99.90
8611;DHT22;4343;53.648;10.098;2023-08-31T05:10:12;12.40;99.90
8611;DHT22;4343;53.648;10.098;2023-08-31T05:12:37;12.40;99.90
8611;DHT22;4343;53.648;10.098;2023-08-31T05:15:04;12.40;99.90
8611;DHT22;4343;53.648;10.098;2023-08-31T05:17:29;12.40;99.90
8611;DHT22;4343;53.648;10.098;2023-08-31T05:19:56;12.40;99.90
8611;DHT22;4343;53.648;10.098;2023-08-31T05:22:21;12.40;99.90
8611;DHT22;4343;53.648;10.098;2023-08-31T05:24:47;12.40;99.90
8611;DHT22;4343;53.648;10.098;2023-08-31T05:27:13;12.40;99.90
8611;DHT22;4343;53.648;10.098;2023-08-31T05:29:39;12.40;99.90
8611;DHT22;4343;53.648;10.098;2023-08-31T05:32:04;12.40;99.90
8611;DHT22;4343;53.648;10.098;2023-08-31T05:34:30;12.40;99.90
8611;DHT22;4343;53.648;10.098;2023-08-31T05:36:57;12.40;99.90
8611;DHT22;4343;53.648;10.098;2023-08-31T05:39:23;12.40;99.90
8611;DHT22;4343;53.648;10.098;2023-08-31T05:41:49;12.40;99.90
8611;DHT22;4343;53.648;10.098;2023-08-31T05:44:14;12.40;99.90
8611;DHT22;4343;53.648;10.098;2023-08-31T05:46:40;12.40;99.90
8611;DHT22;4343;53.648;10.098;2023-08-31T05:49:06;12.40;99.90
8611;DHT22;4343;53.648;10.098;2023-08-31T05:51:32;12.40;99.90
8611;DHT22;4343;53.648;10.098;2023-08-31T05:53:58;12.40;99.90
8611;DHT22;4343;53.648;10.098;2023-08-31T05:56:23;12.40;99.90
8611;DHT22;4343;53.648;10.098;2023-08-31T05:58:49;12.50;99.90
8611;DHT22;4343;53.648;10.098;2023-08-31T06:01:15;12.50;99.90
8611;DHT22;4343;53.648;10.098;2023-08-31T06:03:41;12.50;99.90
8611;DHT22;4343;53.648;10.098;2023-08-31T06:06:07;12.50;99.90
8611;DHT22;4343;53.648;10.098;2023-08-31T06:08:32;12.50;99.90
8611;DHT22;4343;53.648;10.098;2023-08-31T06:10:58;12.60;99.90
8611;DHT22;4343;53.648;10.098;2023-08-31T06:13:24;12.60;99.90
8611;DHT22;4343;53.648;10.098;2023-08-31T06:15:49;12.60;99.90
8611;DHT22;4343;53.648;10.098;2023-08-31T06:18:15;12.70;99.90
8611;DHT22;4343;53.648;10.098;2023-08-31T06:20:41;12.70;99.90
8611;DHT22;4343;53.648;10.098;2023-08-31T06:23:06;12.70;99.90
8611;DHT22;4343;53.648;10.098;2023-08-31T06:25:32;12.70;99.90
8611;DHT22;4343;53.648;10.098;2023-08-31T06:27:57;12.80;99.90
8611;DHT22;4343;53.648;10.098;2023-08-31T06:30:23;12.90;99.90
8611;DHT22;4343;53.648;10.098;2023-08-31T06:32:49;13.20;99.90
8611;DHT22;4343;53.648;10.098;2023-08-31T06:35:15;13.30;99.90
8611;DHT22;4343;53.648;10.098;2023-08-31T06:37:42;13.60;99.90
8611;DHT22;4343;53.648;10.098;2023-08-31T06:40:08;13.80;99.90
8611;DHT22;4343;53.648;10.098;2023-08-31T06:42:35;14.10;99.90
8611;DHT22;4343;53.648;10.098;2023-08-31T06:45:02;14.40;99.90
8611;DHT22;4343;53.648;10.098;2023-08-31T06:47:27;14.60;99.90
8611;DHT22;4343;53.648;10.098;2023-08-31T06:49:53;14.90;99.90
8611;DHT22;4343;53.648;10.098;2023-08-31T06:52:18;15.10;99.90
8611;DHT22;4343;53.648;10.098;2023-08-31T06:54:44;15.30;99.90
8611;DHT22;4343;53.648;10.098;2023-08-31T06:57:10;15.40;99.90
8611;DHT22;4343;53.648;10.098;2023-08-31T06:59:35;15.60;99.90
8611;DHT22;4343;53.648;10.098;2023-08-31T07:02:01;15.70;99.90
8611;DHT22;4343;53.648;10.098;2023-08-31T07:04:27;15.80;99.90
8611;DHT22;4343;53.648;10.098;2023-08-31T07:06:52;15.80;99.90
8611;DHT22;4343;53.648;10.098;2023-08-31T07:09:18;15.80;99.90
8611;DHT22;4343;53.648;10.098;2023-08-31T07:11:43;15.80;99.90
8611;DHT22;4343;53.648;10.098;2023-08-31T07:14:09;15.80;99.90
8611;DHT22;4343;53.648;10.098;2023-08-31T07:16:35;15.80;99.90
8611;DHT22;4343;53.648;10.098;2023-08-31T07:19:00;15.80;99.90
8611;DHT22;4343;53.648;10.098;2023-08-31T07:21:26;15.80;99.90
8611;DHT22;4343;53.648;10.098;2023-08-31T07:23:52;15.80;99.90
8611;DHT22;4343;53.648;10.098;2023-08-31T07:26:18;15.80;99.90
8611;DHT22;4343;53.648;10.098;2023-08-31T07:28:43;15.80;99.90
8611;DHT22;4343;53.648;10.098;2023-08-31T07:31:09;16.00;99.90
8611;DHT22;4343;53.648;10.098;2023-08-31T07:33:34;16.10;99.90
8611;DHT22;4343;53.648;10.098;2023-08-31T07:36:00;16.20;99.90
8611;DHT22;4343;53.648;10.098;2023-08-31T07:38:27;16.30;99.90
8611;DHT22;4343;53.648;10.098;2023-08-31T07:40:53;16.50;99.90
8611;DHT22;4343;53.648;10.098;2023-08-31T07:43:19;16.70;99.90
8611;DHT22;4343;53.648;10.098;2023-08-31T07:45:44;16.80;99.90
8611;DHT22;4343;53.648;10.098;2023-08-31T07:48:10;16.90;99.90
8611;DHT22;4343;53.648;10.098;2023-08-31T07:50:35;16.90;99.90
8611;DHT22;4343;53.648;10.098;2023-08-31T07:53:01;17.00;99.90
8611;DHT22;4343;53.648;10.098;2023-08-31T07:55:27;17.00;99.90
8611;DHT22;4343;53.648;10.098;2023-08-31T07:57:53;17.00;99.90
8611;DHT22;4343;53.648;10.098;2023-08-31T08:00:19;17.00;99.90
8611;DHT22;4343;53.648;10.098;2023-08-31T08:02:45;16.90;99.90
8611;DHT22;4343;53.648;10.098;2023-08-31T08:05:11;17.00;99.90
8611;DHT22;4343;53.648;10.098;2023-08-31T08:07:37;17.00;99.90
8611;DHT22;4343;53.648;10.098;2023-08-31T08:10:02;17.10;99.90
8611;DHT22;4343;53.648;10.098;2023-08-31T08:12:37;17.10;99.90
8611;DHT22;4343;53.648;10.098;2023-08-31T08:15:03;17.10;99.90
8611;DHT22;4343;53.648;10.098;2023-08-31T08:17:29;17.10;99.90
8611;DHT22;4343;53.648;10.098;2023-08-31T08:19:54;17.10;99.90
8611;DHT22;4343;53.648;10.098;2023-08-31T08:22:20;17.20;99.90
8611;DHT22;4343;53.648;10.098;2023-08-31T08:24:45;17.20;99.90
8611;DHT22;4343;53.648;10.098;2023-08-31T08:27:11;17.20;99.90
8611;DHT22;4343;53.648;10.098;2023-08-31T08:29:36;17.20;99.90
8611;DHT22;4343;53.648;10.098;2023-08-31T08:32:02;17.20;99.90
8611;DHT22;4343;53.648;10.098;2023-08-31T08:34:28;17.20;99.90
8611;DHT22;4343;53.648;10.098;2023-08-31T08:36:54;17.20;99.90
8611;DHT22;4343;53.648;10.098;2023-08-31T08:39:20;17.20;99.90
8611;DHT22;4343;53.648;10.098;2023-08-31T08:41:46;17.20;99.90
8611;DHT22;4343;53.648;10.098;2023-08-31T08:44:14;17.10;99.90
8611;DHT22;4343;53.648;10.098;2023-08-31T08:46:42;17.10;99.90
8611;DHT22;4343;53.648;10.098;2023-08-31T08:49:09;17.10;99.90
8611;DHT22;4343;53.648;10.098;2023-08-31T08:51:36;17.10;99.90
8611;DHT22;4343;53.648;10.098;2023-08-31T08:54:01;17.20;99.90
8611;DHT22;4343;53.648;10.098;2023-08-31T08:56:28;17.20;99.90
8611;DHT22;4343;53.648;10.098;2023-08-31T08:58:54;17.30;99.90
8611;DHT22;4343;53.648;10.098;2023-08-31T09:01:19;17.40;99.90
8611;DHT22;4343;53.648;10.098;2023-08-31T09:03:48;17.40;99.90
8611;DHT22;4343;53.648;10.098;2023-08-31T09:06:14;17.40;99.90
8611;DHT22;4343;53.648;10.098;2023-08-31T09:08:41;17.50;99.90
8611;DHT22;4343;53.648;10.098;2023-08-31T09:11:06;17.50;99.90
8611;DHT22;4343;53.648;10.098;2023-08-31T09:13:32;17.60;99.90
8611;DHT22;4343;53.648;10.098;2023-08-31T09:15:59;17.60;99.90
8611;DHT22;4343;53.648;10.098;2023-08-31T09:18:28;17.60;99.90
8611;DHT22;4343;53.648;10.098;2023-08-31T09:20:57;17.60;99.90
8611;DHT22;4343;53.648;10.098;2023-08-31T09:23:23;17.60;99.90
8611;DHT22;4343;53.648;10.098;2023-08-31T09:25:54;17.60;99.90
8611;DHT22;4343;53.648;10.098;2023-08-31T09:28:24;17.60;99.90
8611;DHT22;4343;53.648;10.098;2023-08-31T09:30:52;17.60;99.90
8611;DHT22;4343;53.648;10.098;2023-08-31T09:33:20;17.60;99.90
8611;DHT22;4343;53.648;10.098;2023-08-31T09:35:56;17.60;99.90
8611;DHT22;4343;53.648;10.098;2023-08-31T09:38:21;17.50;99.90
8611;DHT22;4343;53.648;10.098;2023-08-31T09:40:47;17.50;99.90
8611;DHT22;4343;53.648;10.098;2023-08-31T09:43:23;17.40;99.90
8611;DHT22;4343;53.648;10.098;2023-08-31T09:45:49;17.40;99.90
8611;DHT22;4343;53.648;10.098;2023-08-31T09:48:16;17.30;99.90
8611;DHT22;4343;53.648;10.098;2023-08-31T09:50:44;17.20;99.90
8611;DHT22;4343;53.648;10.098;2023-08-31T09:53:11;17.10;99.90
8611;DHT22;4343;53.648;10.098;2023-08-31T09:55:39;17.00;99.90
8611;DHT22;4343;53.648;10.098;2023-08-31T09:58:07;16.90;99.90
8611;DHT22;4343;53.648;10.098;2023-08-31T10:00:35;16.80;99.90
8611;DHT22;4343;53.648;10.098;2023-08-31T10:03:03;16.80;99.90
8611;DHT22;4343;53.648;10.098;2023-08-31T10:05:29;16.90;99.90
8611;DHT22;4343;53.648;10.098;2023-08-31T10:07:57;17.00;99.90
8611;DHT22;4343;53.648;10.098;2023-08-31T10:10:23;17.20;99.90
8611;DHT22;4343;53.648;10.098;2023-08-31T10:12:49;17.30;99.90
8611;DHT22;4343;53.648;10.098;2023-08-31T10:15:17;17.50;99.90
8611;DHT22;4343;53.648;10.098;2023-08-31T10:17:44;17.60;99.90
8611;DHT22;4343;53.648;10.098;2023-08-31T10:20:11;17.80;99.90
8611;DHT22;4343;53.648;10.098;2023-08-31T10:22:38;17.90;99.90
8611;DHT22;4343;53.648;10.098;2023-08-31T10:25:05;18.10;99.90
8611;DHT22;4343;53.648;10.098;2023-08-31T10:33:12;18.60;99.90
8611;DHT22;4343;53.648;10.098;2023-08-31T10:35:52;18.80;99.90
8611;DHT22;4343;53.648;10.098;2023-08-31T10:38:25;18.90;99.90
8611;DHT22;4343;53.648;10.098;2023-08-31T10:43:48;19.10;99.90
8611;DHT22;4343;53.648;10.098;2023-08-31T10:46:33;19.20;99.90
8611;DHT22;4343;53.648;10.098;2023-08-31T10:49:00;19.20;99.90
8611;DHT22;4343;53.648;10.098;2023-08-31T10:51:28;19.30;99.90
8611;DHT22;4343;53.648;10.098;2023-08-31T10:56:30;19.40;99.90
8611;DHT22;4343;53.648;10.098;2023-08-31T10:58:59;19.20;99.90
8611;DHT22;4343;53.648;10.098;2023-08-31T11:04:20;19.10;99.90
8611;DHT22;4343;53.648;10.098;2023-08-31T11:06:46;19.10;99.90
8611;DHT22;4343;53.648;10.098;2023-08-31T11:09:21;19.20;99.90
8611;DHT22;4343;53.648;10.098;2023-08-31T11:11:47;19.30;99.90
8611;DHT22;4343;53.648;10.098;2023-08-31T11:14:14;19.40;99.90
8611;DHT22;4343;53.648;10.098;2023-08-31T11:16:41;19.50;99.90
8611;DHT22;4343;53.648;10.098;2023-08-31T11:19:07;19.60;99.90
8611;DHT22;4343;53.648;10.098;2023-08-31T11:21:32;19.60;99.90
8611;DHT22;4343;53.648;10.098;2023-08-31T11:23:58;19.50;99.90
8611;DHT22;4343;53.648;10.098;2023-08-31T11:26:25;19.50;99.90
8611;DHT22;4343;53.648;10.098;2023-08-31T11:28:51;19.60;99.90
8611;DHT22;4343;53.648;10.098;2023-08-31T11:31:24;19.70;99.90
8611;DHT22;4343;53.648;10.098;2023-08-31T11:33:49;19.90;99.90
8611;DHT22;4343;53.648;10.098;2023-08-31T11:36:15;20.10;99.90
8611;DHT22;4343;53.648;10.098;2023-08-31T11:38:43;20.20;99.90
8611;DHT22;4343;53.648;10.098;2023-08-31T11:41:09;20.30;99.90
8611;DHT22;4343;53.648;10.098;2023-08-31T11:43:35;20.30;99.90
8611;DHT22;4343;53.648;10.098;2023-08-31T11:46:02;20.30;99.90
8611;DHT22;4343;53.648;10.098;2023-08-31T11:48:28;20.30;99.90
8611;DHT22;4343;53.648;10.098;2023-08-31T11:50:54;20.40;99.90
8611;DHT22;4343;53.648;10.098;2023-08-31T11:53:20;20.50;99.90
8611;DHT22;4343;53.648;10.098;2023-08-31T11:55:52;20.60;99.90
8611;DHT22;4343;53.648;10.098;2023-08-31T11:58:19;20.60;99.90
8611;DHT22;4343;53.648;10.098;2023-08-31T12:00:45;20.60;99.90
8611;DHT22;4343;53.648;10.098;2023-08-31T12:03:19;20.60;99.90
8611;DHT22;4343;53.648;10.098;2023-08-31T12:05:46;20.50;99.90
8611;DHT22;4343;53.648;10.098;2023-08-31T12:08:11;20.50;99.90
8611;DHT22;4343;53.648;10.098;2023-08-31T12:10:40;20.40;99.90
8611;DHT22;4343;53.648;10.098;2023-08-31T12:13:10;20.30;99.90
8611;DHT22;4343;53.648;10.098;2023-08-31T12:15:36;20.30;99.90
8611;DHT22;4343;53.648;10.098;2023-08-31T12:18:12;20.20;99.90
8611;DHT22;4343;53.648;10.098;2023-08-31T12:20:45;20.20;99.90
8611;DHT22;4343;53.648;10.098;2023-08-31T12:23:11;20.20;99.90
8611;DHT22;4343;53.648;10.098;2023-08-31T12:25:36;20.10;99.90
8611;DHT22;4343;53.648;10.098;2023-08-31T12:28:02;20.00;99.90
8611;DHT22;4343;53.648;10.098;2023-08-31T12:30:28;20.00;99.90
8611;DHT22;4343;53.648;10.098;2023-08-31T12:32:54;19.90;99.90
8611;DHT22;4343;53.648;10.098;2023-08-31T12:35:19;19.90;99.90
8611;DHT22;4343;53.648;10.098;2023-08-31T12:37:45;19.80;99.90
8611;DHT22;4343;53.648;10.098;2023-08-31T12:40:11;19.80;99.90
8611;DHT22;4343;53.648;10.098;2023-08-31T12:42:36;19.70;99.90
8611;DHT22;4343;53.648;10.098;2023-08-31T12:45:02;19.60;99.90
8611;DHT22;4343;53.648;10.098;2023-08-31T12:47:31;19.50;99.90
8611;DHT22;4343;53.648;10.098;2023-08-31T12:49:56;19.40;99.90
8611;DHT22;4343;53.648;10.098;2023-08-31T12:52:22;19.30;99.90
8611;DHT22;4343;53.648;10.098;2023-08-31T12:54:47;19.20;99.90
8611;DHT22;4343;53.648;10.098;2023-08-31T12:57:13;19.00;99.90
8611;DHT22;4343;53.648;10.098;2023-08-31T12:59:38;18.90;99.90
8611;DHT22;4343;53.648;10.098;2023-08-31T13:02:04;18.80;99.90
8611;DHT22;4343;53.648;10.098;2023-08-31T13:04:35;18.70;99.90
8611;DHT22;4343;53.648;10.098;2023-08-31T13:07:01;18.50;99.90
8611;DHT22;4343;53.648;10.098;2023-08-31T13:09:26;18.30;99.90
8611;DHT22;4343;53.648;10.098;2023-08-31T13:11:53;18.20;99.90
8611;DHT22;4343;53.648;10.098;2023-08-31T13:14:19;18.00;99.90
8611;DHT22;4343;53.648;10.098;2023-08-31T13:16:44;17.90;99.90
8611;DHT22;4343;53.648;10.098;2023-08-31T13:19:10;17.80;99.90
8611;DHT22;4343;53.648;10.098;2023-08-31T13:21:35;17.80;99.90
8611;DHT22;4343;53.648;10.098;2023-08-31T13:24:01;17.80;99.90
8611;DHT22;4343;53.648;10.098;2023-08-31T13:26:26;17.70;99.90
8611;DHT22;4343;53.648;10.098;2023-08-31T13:28:52;17.70;99.90
8611;DHT22;4343;53.648;10.098;2023-08-31T13:31:18;17.70;99.90
8611;DHT22;4343;53.648;10.098;2023-08-31T13:33:43;17.70;99.90
8611;DHT22;4343;53.648;10.098;2023-08-31T13:36:09;17.80;99.90
8611;DHT22;4343;53.648;10.098;2023-08-31T13:38:34;17.90;99.90
8611;DHT22;4343;53.648;10.098;2023-08-31T13:41:00;18.00;99.90
8611;DHT22;4343;53.648;10.098;2023-08-31T13:43:26;18.20;99.90
8611;DHT22;4343;53.648;10.098;2023-08-31T13:45:51;18.50;99.90
8611;DHT22;4343;53.648;10.098;2023-08-31T13:48:18;18.70;99.90
8611;DHT22;4343;53.648;10.098;2023-08-31T13:50:43;19.00;99.90
8611;DHT22;4343;53.648;10.098;2023-08-31T13:53:09;19.20;99.90
8611;DHT22;4343;53.648;10.098;2023-08-31T13:55:34;19.40;99.90
8611;DHT22;4343;53.648;10.098;2023-08-31T13:58:07;19.50;99.90
8611;DHT22;4343;53.648;10.098;2023-08-31T14:00:36;19.60;99.90
8611;DHT22;4343;53.648;10.098;2023-08-31T14:03:03;19.80;99.90
8611;DHT22;4343;53.648;10.098;2023-08-31T14:05:30;20.00;99.90
8611;DHT22;4343;53.648;10.098;2023-08-31T14:07:56;20.20;99.90
8611;DHT22;4343;53.648;10.098;2023-08-31T14:10:21;20.50;99.90
8611;DHT22;4343;53.648;10.098;2023-08-31T14:12:47;20.70;99.90
8611;DHT22;4343;53.648;10.098;2023-08-31T14:15:13;20.80;99.90
8611;DHT22;4343;53.648;10.098;2023-08-31T14:17:38;20.90;99.90
8611;DHT22;4343;53.648;10.098;2023-08-31T14:20:04;20.90;99.90
8611;DHT22;4343;53.648;10.098;2023-08-31T14:22:33;20.80;99.90
8611;DHT22;4343;53.648;10.098;2023-08-31T14:25:02;20.80;99.90
8611;DHT22;4343;53.648;10.098;2023-08-31T14:27:28;20.70;99.90
8611;DHT22;4343;53.648;10.098;2023-08-31T14:29:58;20.60;99.90
8611;DHT22;4343;53.648;10.098;2023-08-31T14:32:23;20.50;99.90
8611;DHT22;4343;53.648;10.098;2023-08-31T14:34:49;20.40;99.90
8611;DHT22;4343;53.648;10.098;2023-08-31T14:37:14;20.40;99.90
8611;DHT22;4343;53.648;10.098;2023-08-31T14:39:40;20.30;99.90
8611;DHT22;4343;53.648;10.098;2023-08-31T14:42:06;20.20;99.90
8611;DHT22;4343;53.648;10.098;2023-08-31T14:44:31;20.00;99.90
8611;DHT22;4343;53.648;10.098;2023-08-31T14:46:57;19.90;99.90
8611;DHT22;4343;53.648;10.098;2023-08-31T14:49:23;19.80;99.90
8611;DHT22;4343;53.648;10.098;2023-08-31T14:51:50;19.80;99.90
8611;DHT22;4343;53.648;10.098;2023-08-31T14:54:16;19.70;99.90
8611;DHT22;4343;53.648;10.098;2023-08-31T14:56:41;19.70;99.90
8611;DHT22;4343;53.648;10.098;2023-08-31T14:59:07;19.70;99.90
8611;DHT22;4343;53.648;10.098;2023-08-31T15:01:32;19.60;99.90
8611;DHT22;4343;53.648;10.098;2023-08-31T15:03:58;19.60;99.90
8611;DHT22;4343;53.648;10.098;2023-08-31T15:06:23;19.50;99.90
8611;DHT22;4343;53.648;10.098;2023-08-31T15:08:49;19.40;99.90
8611;DHT22;4343;53.648;10.098;2023-08-31T15:11:14;19.30;99.90
8611;DHT22;4343;53.648;10.098;2023-08-31T15:13:40;19.30;99.90
8611;DHT22;4343;53.648;10.098;2023-08-31T15:16:05;19.20;99.90
8611;DHT22;4343;53.648;10.098;2023-08-31T15:18:31;19.20;99.90
8611;DHT22;4343;53.648;10.098;2023-08-31T15:20:56;19.10;99.90
8611;DHT22;4343;53.648;10.098;2023-08-31T15:23:22;19.10;99.90
8611;DHT22;4343;53.648;10.098;2023-08-31T15:25:48;19.00;99.90
8611;DHT22;4343;53.648;10.098;2023-08-31T15:28:14;19.00;99.90
8611;DHT22;4343;53.648;10.098;2023-08-31T15:30:40;19.00;99.90
8611;DHT22;4343;53.648;10.098;2023-08-31T15:33:05;18.90;99.90
8611;DHT22;4343;53.648;10.098;2023-08-31T15:35:32;18.90;99.90
8611;DHT22;4343;53.648;10.098;2023-08-31T15:37:58;18.80;99.90
8611;DHT22;4343;53.648;10.098;2023-08-31T15:40:24;18.80;99.90
8611;DHT22;4343;53.648;10.098;2023-08-31T15:42:50;18.70;99.90
8611;DHT22;4343;53.648;10.098;2023-08-31T15:45:16;18.70;99.90
8611;DHT22;4343;53.648;10.098;2023-08-31T15:47:41;18.60;99.90
8611;DHT22;4343;53.648;10.098;2023-08-31T15:50:07;18.60;99.90
8611;DHT22;4343;53.648;10.098;2023-08-31T15:52:33;18.50;99.90
8611;DHT22;4343;53.648;10.098;2023-08-31T15:55:02;18.50;99.90
8611;DHT22;4343;53.648;10.098;2023-08-31T15:57:29;18.40;99.90
8611;DHT22;4343;53.648;10.098;2023-08-31T15:59:58;18.30;99.90